Time;durP1;ratioP1;P1;durP2;ratioP2;P2;SDS_P1;SDS_P2;PMS_P1;PMS_P2;Temp;Humidity;BMP_temperature;BMP_pressure;BME280_temperature;BME280_humidity;BME280_pressure;Samples;Min_cycle;Max_cycle;Signal;HPM_P1;HPM_P2
2021/09/21 00:02:10;;;;;;;12.07;8.00;;;;;;;9.78;100.00;102212.72;7392665;19;20766;-58
2021/09/21 00:04:40;;;;;;;16.60;10.13;;;;;;;9.38;100.00;102217.69;7400574;19;20388;-55
2021/09/21 00:07:12;;;;;;;19.07;10.33;;;;;;;9.08;100.00;102227.59;7391966;19;20414;-58
2021/09/21 00:09:41;;;;;;;13.00;8.53;;;;;;;9.26;100.00;102235.72;7400850;19;20708;-59
2021/09/21 00:12:11;;;;;;;13.00;8.57;;;;;;;9.19;100.00;102234.41;7393494;19;20432;-58
2021/09/21 00:14:40;;;;;;;13.47;7.97;;;;;;;9.38;100.00;102244.31;7400413;19;20400;-58
2021/09/21 00:17:10;;;;;;;11.17;8.13;;;;;;;9.03;100.00;102235.88;7393362;19;20490;-59
2021/09/21 00:19:39;;;;;;;13.00;8.00;;;;;;;8.93;100.00;102241.19;7400567;19;20380;-57
2021/09/21 00:22:11;;;;;;;13.17;8.13;;;;;;;8.89;100.00;102237.50;7370916;19;20399;-58
2021/09/21 00:24:41;;;;;;;15.63;10.10;;;;;;;8.94;100.00;102248.13;7400020;19;20388;-59
2021/09/21 00:27:10;;;;;;;17.53;8.00;;;;;;;9.16;100.00;102247.06;7392993;19;20495;-59
2021/09/21 00:29:40;;;;;;;13.60;9.10;;;;;;;8.87;100.00;102227.88;7400293;19;20411;-58
2021/09/21 00:32:14;;;;;;;17.20;10.43;;;;;;;8.77;100.00;102240.03;7392939;19;20866;-57
2021/09/21 00:34:43;;;;;;;14.07;8.50;;;;;;;9.09;100.00;102242.25;7400212;19;20388;-59
2021/09/21 00:37:16;;;;;;;19.63;8.50;;;;;;;8.85;100.00;102224.25;7392355;19;20406;-57
2021/09/21 00:39:47;;;;;;;16.03;9.43;;;;;;;8.49;100.00;102232.84;7398843;19;20384;-58
2021/09/21 00:42:18;;;;;;;14.97;8.10;;;;;;;8.85;100.00;102250.00;7392006;19;20434;-59
2021/09/21 00:44:47;;;;;;;13.17;7.80;;;;;;;9.10;100.00;102238.91;7400280;19;20388;-59
2021/09/21 00:47:17;;;;;;;14.67;8.80;;;;;;;8.84;100.00;102240.50;7392376;19;20515;-59
2021/09/21 00:49:46;;;;;;;13.80;8.43;;;;;;;8.64;100.00;102240.84;7399452;19;20395;-51
2021/09/21 00:52:18;;;;;;;13.50;8.77;;;;;;;8.95;100.00;102239.59;7392392;19;20706;-58
2021/09/21 00:54:48;;;;;;;13.67;9.40;;;;;;;8.83;100.00;102221.59;7399723;19;20456;-59
2021/09/21 00:57:18;;;;;;;14.67;8.37;;;;;;;8.88;100.00;102221.94;7390863;19;20487;-54
2021/09/21 00:59:48;;;;;;;21.17;9.20;;;;;;;9.07;100.00;102221.56;7399241;19;20384;-59
2021/09/21 01:02:17;;;;;;;11.77;7.53;;;;;;;9.14;100.00;102223.78;7390966;19;20423;-58
2021/09/21 01:04:47;;;;;;;21.47;12.50;;;;;;;9.02;100.00;102223.81;7399217;19;20402;-59
2021/09/21 01:07:20;;;;;;;17.00;10.00;;;;;;;9.05;100.00;102216.31;7391844;19;20486;-59
2021/09/21 01:09:49;;;;;;;14.60;8.13;;;;;;;9.20;100.00;102223.34;7399158;19;20402;-59
2021/09/21 01:12:18;;;;;;;16.20;10.20;;;;;;;9.10;100.00;102220.88;7391432;19;20482;-57
2021/09/21 01:14:48;;;;;;;16.37;10.30;;;;;;;8.84;100.00;102217.34;7398304;19;20675;-57
2021/09/21 01:17:17;;;;;;;13.63;8.80;;;;;;;8.70;100.00;102219.81;7391547;19;20428;-57
2021/09/21 01:19:47;;;;;;;17.30;10.13;;;;;;;9.00;100.00;102219.31;7406111;19;20392;-57
2021/09/21 01:22:19;;;;;;;15.37;8.40;;;;;;;9.17;100.00;102217.94;7397934;19;20478;-55
2021/09/21 01:24:48;;;;;;;14.63;9.77;;;;;;;9.24;100.00;102216.72;7406484;19;20402;-59
2021/09/21 01:27:18;;;;;;;15.17;8.33;;;;;;;9.34;100.00;102216.59;7398698;19;20415;-57
2021/09/21 01:29:48;;;;;;;14.90;8.00;;;;;;;9.36;100.00;102219.25;7406006;19;20463;-55
2021/09/21 01:32:19;;;;;;;12.47;7.97;;;;;;;9.54;100.00;102217.94;7397862;19;20430;-56
2021/09/21 01:34:49;;;;;;;14.23;8.20;;;;;;;9.65;100.00;102213.53;7404276;19;20451;-58
2021/09/21 01:37:23;;;;;;;13.90;8.13;;;;;;;9.56;100.00;102213.81;7396464;19;20486;-58
2021/09/21 01:39:53;;;;;;;17.93;11.10;;;;;;;9.32;100.00;102210.41;7405803;19;20454;-56
2021/09/21 01:42:23;;;;;;;14.00;9.20;;;;;;;9.29;100.00;102211.09;7397376;19;20494;-54
2021/09/21 01:44:52;;;;;;;19.30;11.27;;;;;;;9.22;100.00;102210.56;7405887;19;20403;-58
2021/09/21 01:47:23;;;;;;;15.87;10.30;;;;;;;9.08;100.00;102202.72;7398185;19;20703;-57
2021/09/21 01:50:08;;;;;;;15.10;9.00;;;;;;;9.15;100.00;102204.06;7405298;19;20464;-56
2021/09/21 01:52:45;;;;;;;14.40;8.70;;;;;;;9.32;100.00;102194.97;7397037;19;20514;-58
2021/09/21 01:55:22;;;;;;;11.60;8.27;;;;;;;9.19;100.00;102193.22;7405428;19;20397;-57
2021/09/21 02:00:33;;;;;;;11.30;7.83;;;;;;;9.39;100.00;102196.28;7405072;19;20383;-56
2021/09/21 02:03:03;;;;;;;14.20;8.57;;;;;;;9.31;100.00;102195.75;7396080;19;20439;-58
2021/09/21 02:05:33;;;;;;;8.80;6.47;;;;;;;9.32;100.00;102193.28;7403497;19;20399;-58
2021/09/21 02:08:05;;;;;;;22.00;12.77;;;;;;;9.25;100.00;102193.66;7396751;19;20502;-58
2021/09/21 02:10:35;;;;;;;16.43;8.60;;;;;;;9.08;100.00;102191.56;7404777;19;20864;-58
2021/09/21 02:13:04;;;;;;;19.60;10.30;;;;;;;9.01;100.00;102191.13;7396461;19;20474;-59
2021/09/21 02:15:34;;;;;;;13.43;7.53;;;;;;;8.92;100.00;102180.16;7404133;19;20758;-53
2021/09/21 02:18:05;;;;;;;12.50;8.30;;;;;;;8.84;100.00;102179.63;7397575;19;20483;-57
2021/09/21 02:20:35;;;;;;;14.27;7.70;;;;;;;9.06;100.00;102194.03;7404535;19;20443;-59
2021/09/21 02:23:07;;;;;;;15.60;8.20;;;;;;;9.19;100.00;102190.66;7395590;19;20423;-58
2021/09/21 02:25:36;;;;;;;9.00;6.87;;;;;;;9.27;100.00;102189.50;7402835;19;20715;-60
2021/09/21 02:28:06;;;;;;;12.60;7.20;;;;;;;9.47;100.00;102195.13;7397419;19;20962;-57
2021/09/21 02:30:35;;;;;;;11.13;7.50;;;;;;;9.39;100.00;102184.28;7403124;19;20402;-60
2021/09/21 02:33:05;;;;;;;12.27;6.57;;;;;;;9.43;100.00;102193.13;7395751;19;20487;-57
2021/09/21 02:35:35;;;;;;;11.70;7.77;;;;;;;9.40;100.00;102198.06;7403511;19;21100;-57
2021/09/21 02:38:07;;;;;;;12.23;7.90;;;;;;;9.29;100.00;102207.63;7396702;19;20434;-58
2021/09/21 02:40:36;;;;;;;10.30;7.37;;;;;;;9.34;100.00;102200.22;7403945;19;20395;-58
2021/09/21 02:43:06;;;;;;;13.13;8.17;;;;;;;9.47;100.00;102207.13;7394303;19;20503;-58
2021/09/21 02:45:36;;;;;;;14.60;8.20;;;;;;;9.52;100.00;102216.97;7403385;19;20826;-57
2021/09/21 02:48:06;;;;;;;12.73;8.23;;;;;;;9.49;100.00;102210.72;7396283;19;20658;-56
2021/09/21 02:50:35;;;;;;;11.00;7.33;;;;;;;9.58;100.00;102212.22;7403499;19;20388;-58
2021/09/21 02:53:07;;;;;;;12.73;8.20;;;;;;;10.05;100.00;102230.84;7395223;19;20449;-59
2021/09/21 02:55:37;;;;;;;12.93;7.30;;;;;;;10.64;100.00;102236.41;7402905;19;20390;-59
2021/09/21 02:58:06;;;;;;;11.43;7.37;;;;;;;10.80;100.00;102226.31;7396155;19;20419;-57
2021/09/21 03:00:36;;;;;;;10.93;7.10;;;;;;;10.75;100.00;102221.63;7403118;19;20734;-58
2021/09/21 03:03:06;;;;;;;10.93;6.77;;;;;;;11.08;100.00;102225.47;7396293;19;20407;-58
2021/09/21 03:05:40;;;;;;;12.43;7.50;;;;;;;10.72;100.00;102222.31;7402442;19;20384;-58
2021/09/21 03:08:14;;;;;;;10.40;6.47;;;;;;;11.01;100.00;102225.88;7396751;19;20419;-52
2021/09/21 03:10:57;;;;;;;16.83;9.00;;;;;;;10.93;100.00;102216.75;7404647;19;20399;-59
2021/09/21 03:18:51;;;;;;;11.23;6.60;;;;;;;9.54;100.00;102214.50;7402796;19;20455;-58
2021/09/21 03:21:20;;;;;;;11.57;8.27;;;;;;;9.36;100.00;102208.94;7395992;19;20414;-58
2021/09/21 03:23:52;;;;;;;15.37;7.73;;;;;;;9.32;100.00;102224.19;7400650;19;20767;-57
2021/09/21 03:26:22;;;;;;;11.57;7.57;;;;;;;9.35;100.00;102236.41;7394870;19;20407;-58
2021/09/21 03:28:51;;;;;;;12.73;7.60;;;;;;;9.43;100.00;102242.06;7402158;19;20392;-53
2021/09/21 03:31:21;;;;;;;13.93;9.30;;;;;;;9.67;100.00;102242.00;7395018;19;20429;-51
2021/09/21 03:33:50;;;;;;;12.40;8.03;;;;;;;9.22;100.00;102229.47;7400154;19;20870;-58
2021/09/21 03:36:20;;;;;;;14.70;9.53;;;;;;;9.29;100.00;102231.69;7392516;19;20423;-57
2021/09/21 03:38:52;;;;;;;15.90;8.90;;;;;;;9.35;100.00;102238.06;7401719;19;20443;-55
2021/09/21 03:41:21;;;;;;;14.93;7.20;;;;;;;10.15;100.00;102242.66;7392913;19;20479;-57
2021/09/21 03:43:51;;;;;;;15.83;7.23;;;;;;;10.73;100.00;102238.72;7399961;19;20423;-57
2021/09/21 03:46:20;;;;;;;13.87;8.37;;;;;;;9.80;100.00;102217.97;7394482;19;20594;-59
2021/09/21 03:48:50;;;;;;;11.67;8.17;;;;;;;9.56;100.00;102224.13;7401569;19;20371;-57
2021/09/21 03:51:19;;;;;;;14.43;8.57;;;;;;;9.68;100.00;102233.47;7394489;19;20470;-55
2021/09/21 03:53:51;;;;;;;14.13;9.50;;;;;;;9.53;100.00;102229.06;7399709;19;20475;-57
2021/09/21 03:56:21;;;;;;;13.83;8.07;;;;;;;9.88;100.00;102233.97;7393834;19;20415;-55
2021/09/21 03:58:50;;;;;;;13.43;8.27;;;;;;;9.88;100.00;102223.66;7401268;19;20456;-58
2021/09/21 04:01:20;;;;;;;16.73;9.00;;;;;;;9.71;100.00;102228.53;7395112;19;20748;-59
2021/09/21 04:03:50;;;;;;;15.30;7.90;;;;;;;9.99;100.00;102227.84;7399399;19;20506;-59
2021/09/21 04:06:19;;;;;;;15.27;7.83;;;;;;;10.37;100.00;102224.34;7393380;19;20441;-58
2021/09/21 04:08:51;;;;;;;14.60;7.90;;;;;;;10.23;100.00;102214.81;7401049;19;20396;-54
2021/09/21 04:11:21;;;;;;;17.03;9.53;;;;;;;9.71;100.00;102207.94;7394642;19;20475;-55
2021/09/21 04:13:51;;;;;;;14.30;8.80;;;;;;;9.69;100.00;102209.50;7398982;19;20424;-57
2021/09/21 04:16:21;;;;;;;16.80;8.70;;;;;;;9.69;100.00;102204.34;7393778;19;20650;-56
2021/09/21 04:18:50;;;;;;;14.23;7.73;;;;;;;9.69;100.00;102224.97;7400666;19;20388;-56
2021/09/21 04:21:20;;;;;;;16.70;9.00;;;;;;;10.02;100.00;102224.56;7393606;19;20423;-59
2021/09/21 04:23:52;;;;;;;12.63;7.87;;;;;;;10.28;100.00;102221.16;7398651;19;20443;-54
2021/09/21 04:26:21;;;;;;;13.37;8.43;;;;;;;10.63;100.00;102209.72;7392760;19;20407;-56
2021/09/21 04:28:51;;;;;;;16.60;8.70;;;;;;;10.45;100.00;102212.00;7400215;19;20661;-55
2021/09/21 04:31:25;;;;;;;15.30;8.33;;;;;;;10.06;100.00;102216.25;7393344;19;20775;-51
2021/09/21 04:33:56;;;;;;;13.27;8.40;;;;;;;9.80;100.00;102215.41;7398674;19;20425;-59
2021/09/21 04:36:26;;;;;;;14.03;9.13;;;;;;;9.77;100.00;102226.38;7392435;19;20411;-57
2021/09/21 04:38:58;;;;;;;16.43;9.00;;;;;;;9.85;100.00;102216.63;7399889;19;20376;-57
2021/09/21 04:41:28;;;;;;;13.90;8.73;;;;;;;10.03;100.00;102214.38;7392402;19;20897;-52
2021/09/21 04:43:59;;;;;;;16.00;8.90;;;;;;;10.57;100.00;102204.19;7398100;19;20435;-54
2021/09/21 04:46:29;;;;;;;13.97;8.97;;;;;;;10.77;100.00;102209.72;7392193;19;20423;-54
2021/09/21 04:48:58;;;;;;;21.43;11.20;;;;;;;10.54;100.00;102219.44;7399685;19;20380;-57
2021/09/21 04:51:28;;;;;;;37.87;20.23;;;;;;;10.66;100.00;102227.97;7392790;19;20415;-60
2021/09/21 04:54:01;;;;;;;37.33;22.23;;;;;;;10.67;100.00;102228.88;7397337;19;20478;-58
2021/09/21 04:56:30;;;;;;;52.87;29.30;;;;;;;10.36;100.00;102229.44;7391539;19;20872;-57
2021/09/21 04:59:00;;;;;;;19.43;9.40;;;;;;;10.35;100.00;102231.09;7399355;19;20395;-56
2021/09/21 05:01:29;;;;;;;22.10;14.20;;;;;;;10.41;100.00;102230.59;7392564;19;20420;-59
2021/09/21 05:03:59;;;;;;;17.53;11.47;;;;;;;10.54;100.00;102234.94;7397182;19;20683;-57
2021/09/21 05:06:28;;;;;;;11.90;8.10;;;;;;;10.45;100.00;102239.50;7391682;19;20427;-57
2021/09/21 05:09:00;;;;;;;16.37;10.80;;;;;;;10.15;100.00;102246.94;7399029;19;20406;-55
2021/09/21 05:11:30;;;;;;;17.40;10.90;;;;;;;10.27;100.00;102247.75;7392029;19;20471;-57
2021/09/21 05:13:59;;;;;;;18.37;10.80;;;;;;;10.25;100.00;102250.22;7396767;19;20411;-59
2021/09/21 05:16:29;;;;;;;19.00;11.80;;;;;;;10.24;100.00;102252.69;7394540;19;20499;-58
2021/09/21 05:18:58;;;;;;;23.30;13.20;;;;;;;10.18;100.00;102247.13;7398812;19;20388;-58
2021/09/21 05:21:28;;;;;;;20.43;11.73;;;;;;;10.10;100.00;102254.38;7392371;19;20709;-55
2021/09/21 05:23:57;;;;;;;18.80;10.47;;;;;;;10.08;100.00;102253.34;7396823;19;20491;-57
2021/09/21 05:26:29;;;;;;;22.83;12.20;;;;;;;9.99;100.00;102245.88;7391155;19;20713;-57
2021/09/21 05:28:59;;;;;;;22.53;11.73;;;;;;;9.90;100.00;102246.16;7398575;19;20459;-58
2021/09/21 05:31:28;;;;;;;14.60;9.50;;;;;;;9.73;100.00;102253.63;7391712;19;20427;-55
2021/09/21 05:33:57;;;;;;;15.40;9.70;;;;;;;9.73;100.00;102258.78;7396336;19;20483;-58
2021/09/21 05:36:27;;;;;;;36.77;17.93;;;;;;;9.83;100.00;102270.63;7390791;19;20479;-54
2021/09/21 05:38:57;;;;;;;63.53;30.13;;;;;;;9.97;100.00;102260.38;7398065;19;20405;-58
2021/09/21 05:41:29;;;;;;;75.53;33.83;;;;;;;10.04;100.00;102267.72;7391370;19;20471;-58
2021/09/21 05:43:58;;;;;;;20.50;11.70;;;;;;;10.12;100.00;102263.97;7396026;19;20435;-57
2021/09/21 05:46:28;;;;;;;17.10;11.07;;;;;;;10.21;100.00;102271.44;7390212;19;20419;-56
2021/09/21 05:48:59;;;;;;;19.83;11.10;;;;;;;10.22;100.00;102265.53;7398018;19;20388;-59
2021/09/21 05:51:29;;;;;;;22.83;13.10;;;;;;;10.20;100.00;102273.94;7390744;19;20879;-58
2021/09/21 05:53:59;;;;;;;17.03;10.73;;;;;;;10.23;100.00;102263.81;7395694;19;20416;-59
2021/09/21 05:56:31;;;;;;;22.53;13.77;;;;;;;10.26;100.00;102258.88;7389919;19;20486;-58
2021/09/21 05:59:00;;;;;;;19.50;11.40;;;;;;;10.31;100.00;102259.19;7397861;19;20388;-59
2021/09/21 06:01:32;;;;;;;21.50;11.03;;;;;;;10.30;100.00;102270.28;7390704;19;20429;-58
2021/09/21 06:04:01;;;;;;;22.00;13.17;;;;;;;10.20;100.00;102261.03;7395320;19;20415;-58
2021/09/21 06:06:31;;;;;;;26.30;14.53;;;;;;;10.21;100.00;102265.41;7396479;19;20447;-58
2021/09/21 06:09:01;;;;;;;25.90;11.30;;;;;;;10.17;100.00;102272.06;7404856;19;20443;-58
2021/09/21 06:11:35;;;;;;;20.70;11.00;;;;;;;10.16;100.00;102283.16;7397744;19;20466;-55
2021/09/21 06:14:05;;;;;;;19.40;10.17;;;;;;;10.10;100.00;102288.78;7401840;19;20410;-53
2021/09/21 06:16:35;;;;;;;24.90;11.00;;;;;;;10.19;100.00;102285.03;7397193;19;20438;-57
2021/09/21 06:19:05;;;;;;;20.60;10.80;;;;;;;10.23;100.00;102281.88;7404565;19;20394;-56
2021/09/21 06:21:34;;;;;;;16.47;10.27;;;;;;;10.21;100.00;102293.78;7397245;19;20412;-50
2021/09/21 06:24:04;;;;;;;20.03;10.20;;;;;;;10.32;100.00;102287.66;7401560;19;20887;-56
2021/09/21 06:26:36;;;;;;;22.10;11.87;;;;;;;10.38;100.00;102290.66;7396385;19;20428;-56
2021/09/21 06:29:05;;;;;;;19.10;11.70;;;;;;;10.49;100.00;102295.66;7404299;19;20400;-57
2021/09/21 06:31:35;;;;;;;18.77;10.63;;;;;;;10.57;100.00;102299.66;7397525;19;20515;-56
2021/09/21 06:34:05;;;;;;;17.13;10.63;;;;;;;10.70;100.00;102300.44;7401529;19;20420;-58
2021/09/21 06:36:34;;;;;;;15.37;9.53;;;;;;;10.78;100.00;102299.28;7396474;19;20939;-54
2021/09/21 06:39:05;;;;;;;19.27;10.70;;;;;;;10.84;100.00;102302.28;7404066;19;20397;-56
2021/09/21 06:41:37;;;;;;;17.13;10.20;;;;;;;10.84;100.00;102298.78;7397109;19;20419;-56
2021/09/21 06:44:07;;;;;;;21.13;9.87;;;;;;;10.84;100.00;102298.78;7401246;19;21172;-59
2021/09/21 06:46:36;;;;;;;15.07;8.67;;;;;;;11.01;100.00;102302.44;7396241;19;20421;-56
2021/09/21 06:49:06;;;;;;;14.10;8.60;;;;;;;11.05;100.00;102312.19;7403677;19;20853;-54
2021/09/21 06:51:35;;;;;;;14.70;8.60;;;;;;;10.99;100.00;102310.13;7396483;19;20487;-58
2021/09/21 06:54:05;;;;;;;12.73;7.90;;;;;;;11.05;100.00;102307.94;7401056;19;20491;-57
2021/09/21 06:56:34;;;;;;;17.70;8.77;;;;;;;11.12;100.00;102305.75;7395715;19;20527;-56
2021/09/21 06:59:07;;;;;;;19.00;9.90;;;;;;;10.90;100.00;102301.75;7403299;19;20396;-57
2021/09/21 07:01:36;;;;;;;14.13;8.63;;;;;;;11.02;100.00;102301.69;7395969;19;20422;-55
2021/09/21 07:04:06;;;;;;;18.83;9.17;;;;;;;11.00;100.00;102295.50;7400577;19;20415;-60
2021/09/21 07:06:36;;;;;;;20.23;11.27;;;;;;;11.00;100.00;102301.56;7393921;19;20427;-59
2021/09/21 07:09:05;;;;;;;10.90;7.60;;;;;;;11.05;100.00;102305.34;7402864;19;20451;-54
2021/09/21 07:11:35;;;;;;;24.30;8.43;;;;;;;11.03;100.00;102301.75;7396055;19;20424;-59
2021/09/21 07:14:07;;;;;;;12.97;7.90;;;;;;;11.06;100.00;102301.97;7400377;19;20711;-58
2021/09/21 07:16:37;;;;;;;13.87;8.20;;;;;;;11.07;100.00;102308.91;7395241;19;20419;-58
2021/09/21 07:19:06;;;;;;;13.70;8.87;;;;;;;10.96;100.00;102309.91;7406591;19;20395;-56
2021/09/21 07:21:36;;;;;;;14.60;8.60;;;;;;;10.94;100.00;102309.81;7396661;19;20411;-59
2021/09/21 07:24:06;;;;;;;16.97;8.37;;;;;;;11.10;100.00;102313.41;7400309;19;20489;-59
2021/09/21 07:26:36;;;;;;;15.60;7.70;;;;;;;11.24;100.00;102321.13;7393589;19;20486;-55
2021/09/21 07:29:08;;;;;;;18.33;10.40;;;;;;;11.17;100.00;102317.25;7402151;19;20384;-58
2021/09/21 07:31:37;;;;;;;12.63;8.20;;;;;;;11.26;100.00;102316.94;7395359;19;20432;-58
2021/09/21 07:34:07;;;;;;;37.00;19.03;;;;;;;12.03;100.00;102307.91;7400062;19;20418;-58
2021/09/21 07:36:36;;;;;;;21.57;11.07;;;;;;;12.20;100.00;102306.34;7394410;19;20418;-59
2021/09/21 07:39:06;;;;;;;19.57;11.73;;;;;;;11.94;100.00;102308.22;7401962;19;20384;-55
2021/09/21 07:41:36;;;;;;;26.63;14.97;;;;;;;11.72;100.00;102312.09;7394685;19;20419;-58
2021/09/21 07:44:09;;;;;;;22.77;13.50;;;;;;;11.65;100.00;102306.44;7400129;19;20509;-56
2021/09/21 07:46:38;;;;;;;14.97;9.00;;;;;;;11.48;100.00;102309.78;7392887;19;20423;-59
2021/09/21 07:49:08;;;;;;;11.30;7.40;;;;;;;11.33;100.00;102311.38;7401671;19;20443;-58
2021/09/21 07:51:37;;;;;;;17.20;11.07;;;;;;;11.38;100.00;102309.97;7394660;19;20683;-59
2021/09/21 07:54:08;;;;;;;14.23;7.87;;;;;;;11.35;100.00;102312.38;7399119;19;20491;-57
2021/09/21 07:56:38;;;;;;;14.10;7.80;;;;;;;11.25;100.00;102317.75;7372795;19;20888;-57
2021/09/21 07:59:10;;;;;;;14.93;8.40;;;;;;;11.24;100.00;102311.72;7400489;19;20391;-58
2021/09/21 08:01:41;;;;;;;16.40;8.83;;;;;;;11.28;100.00;102316.25;7394260;19;20706;-57
2021/09/21 08:04:11;;;;;;;15.63;8.40;;;;;;;11.34;100.00;102315.75;7398971;19;20428;-58
2021/09/21 08:06:41;;;;;;;31.50;13.37;;;;;;;11.38;100.00;102312.56;7392838;19;20442;-56
2021/09/21 08:09:10;;;;;;;15.10;8.47;;;;;;;11.37;100.00;102331.44;7400985;19;20445;-57
2021/09/21 08:11:40;;;;;;;16.93;8.73;;;;;;;11.35;100.00;102325.31;7374714;19;20459;-59
2021/09/21 08:14:12;;;;;;;18.57;9.77;;;;;;;11.36;100.00;102324.50;7398628;19;20747;-54
2021/09/21 08:16:41;;;;;;;13.10;8.63;;;;;;;11.34;100.00;102316.63;7393158;19;20503;-53
2021/09/21 08:19:11;;;;;;;18.10;10.90;;;;;;;11.42;100.00;102319.72;7400635;19;20391;-56
2021/09/21 08:21:40;;;;;;;15.20;9.80;;;;;;;11.42;100.00;102318.81;7393774;19;20765;-55
2021/09/21 08:24:10;;;;;;;17.50;11.00;;;;;;;11.48;100.00;102316.63;7398451;19;20484;-58
2021/09/21 08:26:40;;;;;;;15.93;9.60;;;;;;;11.50;100.00;102309.88;7392083;19;20413;-59
2021/09/21 08:29:13;;;;;;;14.37;8.97;;;;;;;11.53;100.00;102307.47;7399196;19;20395;-56
2021/09/21 08:31:42;;;;;;;13.90;8.40;;;;;;;11.56;100.00;102304.19;7393563;19;20487;-58
2021/09/21 08:34:12;;;;;;;16.47;8.93;;;;;;;11.56;100.00;102293.84;7398051;19;20423;-59
2021/09/21 08:36:41;;;;;;;12.77;8.70;;;;;;;11.63;100.00;102301.19;7378260;19;20426;-58
2021/09/21 08:39:11;;;;;;;19.00;8.80;;;;;;;11.72;100.00;102314.69;7400054;19;20391;-58
2021/09/21 08:41:40;;;;;;;11.40;8.00;;;;;;;11.68;100.00;102312.69;7392682;19;20411;-59
2021/09/21 08:44:13;;;;;;;16.53;9.50;;;;;;;11.79;100.00;102317.66;7397820;19;20475;-58
2021/09/21 08:46:43;;;;;;;25.30;14.03;;;;;;;11.95;100.00;102310.00;7391926;19;20491;-58
2021/09/21 08:49:13;;;;;;;16.33;10.20;;;;;;;12.11;100.00;102308.41;7399818;19;20388;-59
2021/09/21 08:51:43;;;;;;;20.97;12.53;;;;;;;12.23;100.00;102314.31;7392733;19;20475;-60
2021/09/21 08:54:12;;;;;;;18.77;9.17;;;;;;;12.02;100.00;102317.34;7397518;19;20479;-58
2021/09/21 08:56:43;;;;;;;19.60;12.80;;;;;;;12.04;100.00;102314.88;7391967;19;20843;-58
2021/09/21 08:59:15;;;;;;;12.40;8.33;;;;;;;11.85;100.00;102318.03;7399625;19;20387;-55
2021/09/21 09:01:47;;;;;;;14.10;7.70;;;;;;;11.78;100.00;102318.47;7392477;19;20423;-56
2021/09/21 09:04:18;;;;;;;13.33;8.00;;;;;;;11.78;100.00;102318.47;7397743;19;21253;-56
2021/09/21 09:06:50;;;;;;;15.47;8.63;;;;;;;11.68;100.00;102323.03;7391296;19;20418;-55
2021/09/21 09:09:22;;;;;;;16.20;9.60;;;;;;;11.84;100.00;102305.91;7399354;19;20650;-58
2021/09/21 09:11:53;;;;;;;14.70;8.57;;;;;;;11.80;100.00;102303.91;7394953;19;20486;-55
2021/09/21 09:14:27;;;;;;;12.73;8.30;;;;;;;11.66;100.00;102306.56;7398777;19;20452;-57
2021/09/21 09:16:58;;;;;;;15.07;8.83;;;;;;;11.65;100.00;102293.53;7391506;19;20419;-56
2021/09/21 09:19:32;;;;;;;12.30;7.90;;;;;;;11.60;100.00;102301.00;7398931;19;20439;-56
2021/09/21 09:22:11;;;;;;;15.27;7.77;;;;;;;11.56;100.00;102296.44;7391859;19;20423;-54
2021/09/21 09:24:49;;;;;;;12.43;8.53;;;;;;;11.61;100.00;102298.53;7398942;19;20403;-57
2021/09/21 09:27:19;;;;;;;13.33;7.90;;;;;;;11.65;100.00;102297.00;7392321;19;20447;-58
2021/09/21 09:30:00;;;;;;;13.03;8.40;;;;;;;11.71;100.00;102294.81;7398727;19;20394;-57
2021/09/21 09:32:30;;;;;;;13.00;7.70;;;;;;;11.72;100.00;102286.25;7391100;19;20474;-57
2021/09/21 09:35:01;;;;;;;16.77;8.07;;;;;;;11.79;100.00;102292.66;7398653;19;20406;-56
2021/09/21 09:37:42;;;;;;;13.97;8.63;;;;;;;11.88;100.00;102288.06;7390924;19;20422;-54
2021/09/21 09:40:13;;;;;;;18.67;8.40;;;;;;;12.02;100.00;102290.59;7400916;19;20455;-57
2021/09/21 09:42:43;;;;;;;20.00;10.90;;;;;;;12.18;100.00;102289.84;7398056;19;20435;-58
2021/09/21 09:45:16;;;;;;;15.73;8.10;;;;;;;12.07;100.00;102272.78;7406024;19;20394;-57
2021/09/21 09:47:47;;;;;;;12.33;7.33;;;;;;;12.25;100.00;102271.31;7398016;19;20427;-58
2021/09/21 09:50:18;;;;;;;20.37;10.77;;;;;;;12.35;100.00;102274.44;7405215;19;20390;-55
2021/09/21 09:52:47;;;;;;;13.30;7.67;;;;;;;12.37;100.00;102272.84;7397377;19;20887;-59
2021/09/21 09:55:17;;;;;;;14.07;7.80;;;;;;;12.42;100.00;102267.09;7405547;19;20443;-58
2021/09/21 09:57:46;;;;;;;15.00;8.40;;;;;;;12.50;100.00;102270.16;7397865;19;20688;-54
2021/09/21 10:00:19;;;;;;;9.43;6.50;;;;;;;12.51;100.00;102271.06;7404948;19;20469;-56
2021/09/21 10:02:49;;;;;;;12.57;6.80;;;;;;;12.69;100.00;102266.03;7397240;19;20417;-58
2021/09/21 10:05:19;;;;;;;12.20;7.20;;;;;;;12.51;100.00;102271.06;7405103;19;20408;-59
2021/09/21 10:07:48;;;;;;;11.60;8.30;;;;;;;12.73;100.00;102262.81;7395729;19;20438;-51
2021/09/21 10:10:18;;;;;;;14.40;6.57;;;;;;;12.78;100.00;102265.66;7404551;19;20453;-58
2021/09/21 10:12:48;;;;;;;11.30;6.93;;;;;;;12.73;100.00;102273.19;7396755;19;20418;-56
2021/09/21 10:15:20;;;;;;;12.60;6.77;;;;;;;12.80;100.00;102270.13;7404753;19;20394;-59
2021/09/21 10:17:53;;;;;;;12.53;7.13;;;;;;;12.96;100.00;102270.97;7397847;19;20415;-57
2021/09/21 10:20:23;;;;;;;11.13;6.33;;;;;;;13.00;100.00;102257.41;7404381;19;20391;-55
2021/09/21 10:22:54;;;;;;;8.67;6.07;;;;;;;13.09;100.00;102264.81;7396683;19;20713;-57
2021/09/21 10:25:32;;;;;;;10.80;6.43;;;;;;;13.03;100.00;102262.75;7403879;19;20398;-53
2021/09/21 10:28:21;;;;;;;16.63;7.03;;;;;;;13.18;100.00;102262.69;7400039;19;20427;-58
2021/09/21 10:31:00;;;;;;;18.57;7.00;;;;;;;13.28;100.00;102261.50;7404490;19;20387;-53
2021/09/21 10:33:31;;;;;;;11.40;7.90;;;;;;;13.30;100.00;102264.19;7401693;19;20449;-57
2021/09/21 10:36:02;;;;;;;10.30;6.87;;;;;;;13.34;100.00;102255.78;7397035;19;20457;-56
2021/09/21 10:38:32;;;;;;;9.80;6.50;;;;;;;13.54;100.00;102256.00;7403833;19;20399;-55
2021/09/21 10:41:05;;;;;;;10.53;7.20;;;;;;;13.55;100.00;102256.09;7397622;19;20372;-57
2021/09/21 10:43:36;;;;;;;11.03;7.10;;;;;;;13.60;100.00;102264.97;7401874;19;20415;-55
2021/09/21 10:46:28;;;;;;;14.40;7.07;;;;;;;13.63;100.00;102267.75;7396260;19;20435;-54
2021/09/21 10:49:03;;;;;;;12.20;6.70;;;;;;;13.61;100.00;102268.47;7403626;19;20411;-57
2021/09/21 10:51:32;;;;;;;10.87;6.30;;;;;;;13.67;100.00;102253.25;7395993;19;20494;-56
2021/09/21 10:54:04;;;;;;;9.00;6.20;;;;;;;13.76;100.00;102258.03;7401229;19;20491;-58
2021/09/21 10:56:40;;;;;;;10.90;5.87;;;;;;;13.80;100.00;102253.88;7395514;19;20422;-59
2021/09/21 10:59:18;;;;;;;8.30;5.33;;;;;;;13.74;100.00;102249.28;7403442;19;20475;-56
2021/09/21 11:01:52;;;;;;;12.83;5.80;;;;;;;13.77;100.00;102245.16;7396272;19;20415;-59
2021/09/21 11:04:22;;;;;;;8.63;5.63;;;;;;;13.76;100.00;102234.69;7403432;19;20392;-58
2021/09/21 11:06:52;;;;;;;11.10;5.60;;;;;;;13.74;100.00;102233.72;7395124;19;20407;-58
2021/09/21 11:09:27;;;;;;;8.60;5.57;;;;;;;13.80;100.00;102230.53;7403035;19;20391;-58
2021/09/21 11:11:58;;;;;;;9.40;5.43;;;;;;;13.85;100.00;102237.75;7395526;19;20768;-57
2021/09/21 11:14:27;;;;;;;7.80;5.10;;;;;;;13.76;100.00;102232.09;7402528;19;20455;-59
2021/09/21 11:17:00;;;;;;;9.23;5.80;;;;;;;13.84;100.00;102240.28;7395083;19;20674;-52
2021/09/21 11:19:31;;;;;;;12.13;5.60;;;;;;;13.81;100.00;102245.28;7402598;19;20390;-54
2021/09/21 11:22:01;;;;;;;13.13;5.20;;;;;;;13.83;100.00;102243.66;7397369;19;20439;-58
2021/09/21 11:24:31;;;;;;;9.33;5.57;;;;;;;13.94;100.00;102241.63;7402409;19;20396;-59
2021/09/21 11:27:02;;;;;;;10.27;5.27;;;;;;;13.79;100.00;102234.81;7394755;19;20692;-57
2021/09/21 11:29:34;;;;;;;9.13;6.00;;;;;;;13.83;100.00;102229.00;7402225;19;20396;-58
2021/09/21 11:32:16;;;;;;;355.03;231.27;;;;;;;13.89;100.00;102234.50;7394932;19;20487;-55
2021/09/21 11:34:48;;;;;;;11.80;5.93;;;;;;;13.73;100.00;102229.31;7402161;19;20380;-58